Time;durP1;ratioP1;P1;durP2;ratioP2;P2;SDS_P1;SDS_P2;PMS_P1;PMS_P2;Temp;Humidity;BMP_temperature;BMP_pressure;BME280_temperature;BME280_humidity;BME280_pressure;Samples;Min_cycle;Max_cycle;Signal;HPM_P1;HPM_P2
2023/06/01 00:01:12;;;;;;;11.98;6.80;;;19.40;99.90;;;;;;5049529;28;20036;-76
2023/06/01 00:03:39;;;;;;;11.55;6.45;;;19.30;99.90;;;;;;5049579;28;20027;-76
2023/06/01 00:06:06;;;;;;;10.02;5.90;;;19.30;99.90;;;;;;5052561;28;20059;-76
2023/06/01 00:08:32;;;;;;;13.27;6.28;;;19.30;99.90;;;;;;5052585;28;20028;-76
2023/06/01 00:10:57;;;;;;;12.40;6.40;;;19.30;99.90;;;;;;5054306;28;20020;-76
2023/06/01 00:13:23;;;;;;;11.50;6.22;;;19.30;99.90;;;;;;5053043;28;20499;-76
2023/06/01 00:15:49;;;;;;;11.40;7.05;;;19.30;99.90;;;;;;5051859;28;20017;-77
2023/06/01 00:18:15;;;;;;;13.07;8.02;;;19.00;99.90;;;;;;5050801;28;20037;-76
2023/06/01 00:20:41;;;;;;;12.13;7.40;;;18.90;99.90;;;;;;5051503;28;20012;-76
2023/06/01 00:23:08;;;;;;;13.25;8.57;;;18.80;99.90;;;;;;5048306;28;20065;-76
2023/06/01 00:25:34;;;;;;;11.32;7.70;;;18.90;99.90;;;;;;5049183;28;20017;-76
2023/06/01 00:28:02;;;;;;;16.98;8.05;;;19.00;99.90;;;;;;5052155;28;20025;-76
2023/06/01 00:30:28;;;;;;;15.27;7.97;;;18.90;99.90;;;;;;5047992;28;21794;-76
2023/06/01 00:32:54;;;;;;;12.07;7.95;;;19.00;99.90;;;;;;5050965;28;20035;-76
2023/06/01 00:35:20;;;;;;;10.93;7.72;;;19.00;99.90;;;;;;5052412;28;20028;-76
2023/06/01 00:37:45;;;;;;;11.48;7.68;;;18.90;99.90;;;;;;5049570;28;20437;-76
2023/06/01 00:40:11;;;;;;;15.23;8.55;;;18.80;99.90;;;;;;5055675;28;20029;-76
2023/06/01 00:42:37;;;;;;;13.45;7.93;;;18.80;99.90;;;;;;5051976;28;20028;-76
2023/06/01 00:45:03;;;;;;;13.45;8.50;;;18.70;99.90;;;;;;5033016;28;20029;-76
2023/06/01 00:47:30;;;;;;;12.75;8.15;;;18.60;99.90;;;;;;5052056;28;20021;-76
2023/06/01 00:49:56;;;;;;;11.45;9.02;;;18.60;99.90;;;;;;5053577;28;20021;-76
2023/06/01 00:52:23;;;;;;;12.70;8.65;;;18.60;99.90;;;;;;5052313;28;20605;-76
2023/06/01 00:54:48;;;;;;;14.43;8.32;;;18.50;99.90;;;;;;5052923;28;20062;-77
2023/06/01 00:57:14;;;;;;;13.32;8.82;;;18.50;99.90;;;;;;5054500;28;20040;-76
2023/06/01 00:59:40;;;;;;;12.23;8.85;;;18.40;99.90;;;;;;5051520;28;20536;-76
2023/06/01 01:02:08;;;;;;;14.32;8.93;;;18.40;99.90;;;;;;5031411;28;20056;-76
2023/06/01 01:04:34;;;;;;;14.55;9.70;;;18.40;99.90;;;;;;5049736;28;20030;-76
2023/06/01 01:07:28;;;;;;;15.02;10.15;;;18.40;99.90;;;;;;5049455;28;20028;-76
2023/06/01 01:09:58;;;;;;;14.93;9.63;;;18.40;99.90;;;;;;5038679;28;20043;-76
2023/06/01 01:12:33;;;;;;;15.70;9.80;;;18.40;99.90;;;;;;5052866;28;20474;-76
2023/06/01 01:15:18;;;;;;;16.08;10.13;;;18.40;99.90;;;;;;5053825;28;20050;-76
2023/06/01 01:17:47;;;;;;;16.30;9.63;;;18.40;99.90;;;;;;5037172;28;20448;-76
2023/06/01 01:20:22;;;;;;;15.88;10.15;;;18.30;99.90;;;;;;5054675;28;20051;-75
2023/06/01 01:22:56;;;;;;;15.45;9.77;;;18.30;99.90;;;;;;5052170;28;20028;-76
2023/06/01 01:25:58;;;;;;;16.83;8.88;;;18.20;99.90;;;;;;5053385;28;20028;-76
2023/06/01 01:28:52;;;;;;;11.45;9.07;;;18.30;99.90;;;;;;5038218;28;20033;-76
2023/06/01 01:31:23;;;;;;;14.30;10.10;;;18.10;99.90;;;;;;5053878;28;20028;-76
2023/06/01 01:33:51;;;;;;;14.52;9.15;;;18.10;99.90;;;;;;5035354;28;20163;-75
2023/06/01 01:36:17;;;;;;;18.30;9.38;;;18.10;99.90;;;;;;5053921;28;20044;-76
2023/06/01 01:38:43;;;;;;;15.52;9.63;;;18.00;99.90;;;;;;5051897;28;20376;-75
2023/06/01 01:41:08;;;;;;;24.13;10.80;;;17.90;99.90;;;;;;5055503;28;20085;-76
2023/06/01 01:43:35;;;;;;;18.17;10.50;;;17.80;99.90;;;;;;5052278;28;20469;-75
2023/06/01 01:46:11;;;;;;;19.40;10.95;;;17.80;99.90;;;;;;5053512;28;20080;-76
2023/06/01 01:49:17;;;;;;;16.83;11.63;;;17.70;99.90;;;;;;5054663;28;20021;-76
2023/06/01 01:51:50;;;;;;;15.18;9.45;;;17.70;99.90;;;;;;5055441;28;20028;-75
2023/06/01 01:54:18;;;;;;;21.10;12.27;;;17.60;99.90;;;;;;5057906;28;20021;-75
2023/06/01 01:56:45;;;;;;;18.08;10.93;;;17.50;99.90;;;;;;5055574;28;20037;-75
2023/06/01 01:59:12;;;;;;;17.38;11.43;;;17.40;99.90;;;;;;5053158;28;20124;-76
2023/06/01 02:01:41;;;;;;;20.67;11.82;;;17.20;99.90;;;;;;5055410;28;20471;-76
2023/06/01 02:04:07;;;;;;;18.85;12.13;;;17.20;99.90;;;;;;5055634;28;20095;-76
2023/06/01 02:06:33;;;;;;;16.70;12.77;;;17.30;99.90;;;;;;5057954;28;20028;-76
2023/06/01 02:08:59;;;;;;;16.90;11.82;;;17.40;99.90;;;;;;5054623;28;20066;-76
2023/06/01 02:11:26;;;;;;;24.13;12.32;;;17.30;99.90;;;;;;5037458;28;20032;-75
2023/06/01 02:13:51;;;;;;;22.63;12.65;;;17.20;99.90;;;;;;5053928;28;20491;-75
2023/06/01 02:16:17;;;;;;;22.48;12.88;;;17.10;99.90;;;;;;5058053;28;20021;-76
2023/06/01 02:18:45;;;;;;;22.35;12.95;;;17.00;99.90;;;;;;5052769;28;20044;-75
2023/06/01 02:21:14;;;;;;;20.50;12.10;;;16.90;99.90;;;;;;5055596;28;20666;-75
2023/06/01 02:23:40;;;;;;;20.35;12.60;;;16.80;99.90;;;;;;5055428;28;20024;-76
2023/06/01 02:26:07;;;;;;;25.45;12.93;;;16.80;99.90;;;;;;5052877;28;20078;-76
2023/06/01 02:28:32;;;;;;;23.55;14.50;;;16.90;99.90;;;;;;5052892;28;20105;-76
2023/06/01 02:30:58;;;;;;;22.05;13.00;;;16.80;99.90;;;;;;5051481;28;20095;-75
2023/06/01 02:33:26;;;;;;;20.00;13.05;;;16.80;99.90;;;;;;5053032;28;20119;-76
2023/06/01 02:35:52;;;;;;;19.60;12.65;;;16.80;99.90;;;;;;5055294;28;20024;-76
2023/06/01 02:38:17;;;;;;;19.27;13.80;;;16.70;99.90;;;;;;5048291;28;20467;-76
2023/06/01 02:40:43;;;;;;;28.88;13.63;;;16.70;99.90;;;;;;5033818;28;20097;-76
2023/06/01 02:43:09;;;;;;;24.38;13.93;;;16.70;99.90;;;;;;5049384;28;20515;-76
2023/06/01 02:45:35;;;;;;;19.90;13.38;;;16.60;99.90;;;;;;5052857;28;20017;-75
2023/06/01 02:48:00;;;;;;;20.83;12.57;;;16.50;99.90;;;;;;5051867;28;20031;-76
2023/06/01 02:50:26;;;;;;;19.42;12.45;;;16.50;99.90;;;;;;5036832;28;20024;-75
2023/06/01 02:52:51;;;;;;;19.67;12.52;;;16.40;99.90;;;;;;5037413;28;20033;-76
2023/06/01 02:55:17;;;;;;;20.45;13.32;;;16.40;99.90;;;;;;5051187;28;20025;-75
2023/06/01 02:57:43;;;;;;;20.58;12.38;;;16.50;99.90;;;;;;5035912;28;20111;-75
2023/06/01 03:00:15;;;;;;;21.23;12.80;;;16.50;99.90;;;;;;5050269;28;20119;-75
2023/06/01 03:02:42;;;;;;;24.70;13.88;;;16.40;99.90;;;;;;5055129;28;20059;-76
2023/06/01 03:05:09;;;;;;;24.27;13.82;;;16.40;99.90;;;;;;5035993;28;20033;-75
2023/06/01 03:07:35;;;;;;;18.17;12.50;;;16.40;99.90;;;;;;5053672;28;20066;-75
2023/06/01 03:10:00;;;;;;;20.92;13.43;;;16.40;99.90;;;;;;5050473;28;20025;-75
2023/06/01 03:12:26;;;;;;;18.20;13.07;;;16.40;99.90;;;;;;5038317;28;20025;-75
2023/06/01 03:14:52;;;;;;;22.02;12.52;;;16.40;99.90;;;;;;5051792;28;20489;-75
2023/06/01 03:17:17;;;;;;;18.55;12.70;;;16.40;99.90;;;;;;5053103;28;20541;-75
2023/06/01 03:19:43;;;;;;;20.85;13.90;;;16.30;99.90;;;;;;5052890;28;20025;-75
2023/06/01 03:22:09;;;;;;;18.25;13.25;;;16.20;99.90;;;;;;5054588;28;20075;-75
2023/06/01 03:24:36;;;;;;;20.83;13.07;;;16.10;99.90;;;;;;5034532;28;20116;-75
2023/06/01 03:27:01;;;;;;;31.80;14.15;;;16.20;99.90;;;;;;5055100;28;20377;-75
2023/06/01 03:29:27;;;;;;;20.08;12.30;;;16.20;99.90;;;;;;5055108;28;20033;-75
2023/06/01 03:31:52;;;;;;;21.63;13.65;;;16.10;99.90;;;;;;5055061;28;20466;-75
2023/06/01 03:34:19;;;;;;;24.30;14.60;;;16.10;99.90;;;;;;5054709;28;20037;-75
2023/06/01 03:36:48;;;;;;;22.42;14.13;;;16.10;99.90;;;;;;5052666;28;20021;-75
2023/06/01 03:39:16;;;;;;;23.10;14.32;;;16.10;99.90;;;;;;5055907;28;20107;-75
2023/06/01 03:41:43;;;;;;;19.90;13.02;;;16.10;99.90;;;;;;5050066;28;20025;-75
2023/06/01 03:44:10;;;;;;;25.95;14.25;;;16.10;99.90;;;;;;5038594;28;20029;-75
2023/06/01 03:46:35;;;;;;;25.75;14.15;;;16.20;99.90;;;;;;5056345;28;20021;-75
2023/06/01 03:49:01;;;;;;;21.55;13.13;;;16.20;99.90;;;;;;5053525;28;20023;-75
2023/06/01 03:51:27;;;;;;;22.02;14.82;;;16.20;99.90;;;;;;5048908;28;20031;-75
2023/06/01 03:53:53;;;;;;;20.67;13.82;;;16.10;99.90;;;;;;5054576;28;20052;-75
2023/06/01 03:56:19;;;;;;;21.17;13.27;;;16.00;99.90;;;;;;5054509;28;20049;-75
2023/06/01 03:58:45;;;;;;;19.65;13.43;;;16.10;99.90;;;;;;5053654;28;20098;-75
2023/06/01 04:01:12;;;;;;;20.05;13.40;;;16.00;99.90;;;;;;5054909;28;20471;-76
2023/06/01 04:03:39;;;;;;;23.50;13.57;;;15.90;99.90;;;;;;5036444;28;20028;-75
2023/06/01 04:06:11;;;;;;;19.27;12.88;;;15.80;99.90;;;;;;5037807;28;22486;-75
2023/06/01 04:08:42;;;;;;;22.92;13.88;;;15.70;99.90;;;;;;5053333;28;20025;-75
2023/06/01 04:11:07;;;;;;;24.80;13.43;;;15.30;99.90;;;;;;5050806;28;20054;-75
2023/06/01 04:13:33;;;;;;;30.42;13.15;;;15.30;99.90;;;;;;5054376;28;20485;-75
2023/06/01 04:15:58;;;;;;;16.10;12.45;;;15.40;99.90;;;;;;5054933;28;20040;-75
2023/06/01 04:18:24;;;;;;;22.88;12.45;;;15.50;99.90;;;;;;5053262;28;20032;-75
2023/06/01 04:20:50;;;;;;;21.67;12.95;;;15.50;99.90;;;;;;5050822;28;20086;-75
2023/06/01 04:23:16;;;;;;;18.30;12.10;;;15.10;99.90;;;;;;5052037;28;20021;-75
2023/06/01 04:25:43;;;;;;;19.45;13.57;;;15.10;99.90;;;;;;5053461;28;20135;-75
2023/06/01 04:28:10;;;;;;;19.75;14.13;;;15.00;99.90;;;;;;5055850;28;20021;-75
2023/06/01 04:30:35;;;;;;;20.23;14.45;;;14.80;99.90;;;;;;5054642;28;20017;-75
2023/06/01 04:33:01;;;;;;;23.33;14.05;;;14.60;99.90;;;;;;5054693;28;22409;-75
2023/06/01 04:35:27;;;;;;;21.05;13.63;;;14.70;99.90;;;;;;5050396;28;20037;-75
2023/06/01 04:37:53;;;;;;;20.95;13.40;;;14.80;99.90;;;;;;5035431;28;20116;-75
2023/06/01 04:40:18;;;;;;;19.55;13.45;;;15.00;99.90;;;;;;5034087;28;20024;-75
2023/06/01 04:42:55;;;;;;;19.42;13.15;;;15.00;99.90;;;;;;5050046;28;20495;-76
2023/06/01 04:45:23;;;;;;;16.15;13.18;;;15.10;99.90;;;;;;5058931;28;20013;-75
2023/06/01 04:47:49;;;;;;;20.83;12.00;;;15.00;99.90;;;;;;5056817;28;20028;-75
2023/06/01 04:50:16;;;;;;;24.58;13.55;;;15.10;99.90;;;;;;5056676;28;20009;-75
2023/06/01 04:52:42;;;;;;;18.27;14.32;;;15.10;99.90;;;;;;5058510;28;20115;-75
2023/06/01 04:55:12;;;;;;;21.80;13.57;;;15.00;99.90;;;;;;5057961;28;20054;-75
2023/06/01 04:57:44;;;;;;;19.40;14.50;;;15.10;99.90;;;;;;5061187;28;20036;-75
2023/06/01 05:00:17;;;;;;;21.13;14.68;;;15.10;99.90;;;;;;5059378;28;20412;-75
2023/06/01 05:02:44;;;;;;;21.73;14.57;;;15.10;99.90;;;;;;5060367;28;20032;-75
2023/06/01 05:05:11;;;;;;;25.35;15.18;;;15.00;99.90;;;;;;5058475;28;20017;-75
2023/06/01 05:07:38;;;;;;;23.23;14.13;;;15.00;99.90;;;;;;5059110;28;20461;-75
2023/06/01 05:10:09;;;;;;;21.98;14.00;;;15.00;99.90;;;;;;5038233;28;20491;-75
2023/06/01 05:12:35;;;;;;;23.10;13.65;;;15.00;99.90;;;;;;5042713;28;20063;-75
2023/06/01 05:15:03;;;;;;;22.80;15.93;;;15.00;99.90;;;;;;5058526;28;20534;-75
2023/06/01 05:17:29;;;;;;;23.90;14.40;;;15.00;99.90;;;;;;5058773;28;20072;-75
2023/06/01 05:19:56;;;;;;;19.75;15.48;;;15.10;99.90;;;;;;5057608;28;20393;-75
2023/06/01 05:22:22;;;;;;;16.65;12.55;;;15.20;99.90;;;;;;5043271;28;20039;-75
2023/06/01 05:24:48;;;;;;;19.27;14.18;;;15.30;99.90;;;;;;5060521;28;20063;-75
2023/06/01 05:27:14;;;;;;;21.45;14.18;;;15.30;99.90;;;;;;5040384;28;20449;-75
2023/06/01 05:29:40;;;;;;;18.25;13.07;;;15.30;99.90;;;;;;5057362;28;20039;-75
2023/06/01 05:32:06;;;;;;;20.38;15.07;;;15.20;99.90;;;;;;5058731;28;20113;-75
2023/06/01 05:34:32;;;;;;;19.70;14.38;;;15.30;99.90;;;;;;5058606;28;20053;-75
2023/06/01 05:36:57;;;;;;;19.10;15.13;;;15.30;99.90;;;;;;5055835;28;20117;-75
2023/06/01 05:39:27;;;;;;;21.55;15.23;;;15.40;99.90;;;;;;5054929;28;20021;-75
2023/06/01 05:41:53;;;;;;;21.60;14.40;;;15.40;99.90;;;;;;5062527;28;20025;-75
2023/06/01 05:44:19;;;;;;;19.98;15.13;;;15.40;99.90;;;;;;5060037;28;20012;-75
2023/06/01 05:46:45;;;;;;;19.63;14.20;;;15.30;99.90;;;;;;5060723;28;20104;-75
2023/06/01 05:49:10;;;;;;;20.90;14.27;;;15.40;99.90;;;;;;5059820;28;20025;-75
2023/06/01 05:51:37;;;;;;;24.40;14.27;;;15.30;99.90;;;;;;5059963;28;20518;-76
2023/06/01 05:54:04;;;;;;;20.33;14.25;;;15.40;99.90;;;;;;5062936;28;20012;-75
2023/06/01 05:56:30;;;;;;;17.55;13.23;;;15.40;99.90;;;;;;5055683;28;20032;-75
2023/06/01 05:58:56;;;;;;;21.33;13.35;;;15.50;99.90;;;;;;5051655;28;20086;-75
2023/06/01 06:01:22;;;;;;;18.83;14.30;;;15.40;99.90;;;;;;5056384;28;20469;-75
2023/06/01 06:03:48;;;;;;;19.98;14.23;;;15.40;99.90;;;;;;5051721;28;20017;-75
2023/06/01 06:06:13;;;;;;;18.70;13.55;;;15.30;99.90;;;;;;5053834;28;20017;-75
2023/06/01 06:08:39;;;;;;;18.98;13.45;;;15.20;99.90;;;;;;5054516;28;20116;-75
2023/06/01 06:11:05;;;;;;;20.60;13.50;;;15.00;99.90;;;;;;5052552;28;20025;-75
2023/06/01 06:13:30;;;;;;;18.95;13.10;;;14.90;99.90;;;;;;5055722;28;20885;-75
2023/06/01 06:15:56;;;;;;;19.83;14.38;;;15.10;99.90;;;;;;5052314;28;20389;-75
2023/06/01 06:18:22;;;;;;;20.92;13.45;;;15.20;99.90;;;;;;5054687;28;20068;-75
2023/06/01 06:20:47;;;;;;;17.17;13.30;;;15.30;99.90;;;;;;5036240;28;20025;-76
2023/06/01 06:23:13;;;;;;;18.52;13.07;;;15.30;99.90;;;;;;5055769;28;20029;-75
2023/06/01 06:25:42;;;;;;;25.77;13.73;;;15.30;99.90;;;;;;5034937;28;20020;-76
2023/06/01 06:28:08;;;;;;;17.98;13.55;;;15.30;99.90;;;;;;5059016;28;20029;-76
2023/06/01 06:30:34;;;;;;;19.25;13.30;;;15.40;99.90;;;;;;5053540;28;20531;-76
2023/06/01 06:33:00;;;;;;;17.27;12.75;;;15.50;99.90;;;;;;5054109;28;20027;-76
2023/06/01 06:35:25;;;;;;;20.92;13.63;;;15.60;99.90;;;;;;5056578;28;20039;-75
2023/06/01 06:37:51;;;;;;;24.83;15.23;;;15.50;99.90;;;;;;5053787;28;20040;-75
2023/06/01 06:40:18;;;;;;;19.38;13.75;;;15.40;99.90;;;;;;5050611;28;20033;-75
2023/06/01 06:42:44;;;;;;;21.02;13.40;;;15.30;99.90;;;;;;5053187;28;20510;-75
2023/06/01 06:45:10;;;;;;;22.45;15.38;;;15.20;99.90;;;;;;5054653;28;20059;-77
2023/06/01 06:47:36;;;;;;;22.70;14.55;;;15.20;99.90;;;;;;5053505;28;20052;-75
2023/06/01 06:50:02;;;;;;;24.92;14.77;;;15.30;99.90;;;;;;5040025;28;20029;-74
2023/06/01 06:52:28;;;;;;;20.30;15.15;;;15.40;99.90;;;;;;5051616;28;20025;-74
2023/06/01 06:54:54;;;;;;;24.63;15.13;;;15.40;99.90;;;;;;5053739;28;20017;-74
2023/06/01 06:57:20;;;;;;;26.27;15.38;;;15.40;99.90;;;;;;5056625;28;20481;-75
2023/06/01 06:59:46;;;;;;;21.38;13.85;;;15.30;99.90;;;;;;5052007;28;20492;-75
2023/06/01 07:02:11;;;;;;;20.30;13.75;;;15.50;99.90;;;;;;5052103;28;20033;-75
2023/06/01 07:04:39;;;;;;;23.23;14.40;;;15.70;99.90;;;;;;5052299;28;20596;-75
2023/06/01 07:07:05;;;;;;;19.45;13.45;;;15.90;99.90;;;;;;5038864;28;20100;-75
2023/06/01 07:09:31;;;;;;;21.50;14.45;;;15.90;99.90;;;;;;5056541;28;20096;-75
2023/06/01 07:11:57;;;;;;;22.60;15.25;;;16.00;99.90;;;;;;5056633;28;20452;-75
2023/06/01 07:14:23;;;;;;;21.73;15.45;;;15.90;99.90;;;;;;5056465;28;20031;-75
2023/06/01 07:16:48;;;;;;;25.48;15.60;;;15.80;99.90;;;;;;5049049;28;20041;-75
2023/06/01 07:19:14;;;;;;;23.65;13.57;;;15.90;99.90;;;;;;5052079;28;20026;-76
2023/06/01 07:21:40;;;;;;;21.73;13.70;;;16.20;99.90;;;;;;5053443;28;20035;-78
2023/06/01 07:24:06;;;;;;;23.70;13.80;;;16.40;99.90;;;;;;5054536;28;20031;-76
2023/06/01 07:26:32;;;;;;;21.83;14.30;;;16.70;99.90;;;;;;5057807;28;20028;-76
2023/06/01 07:28:59;;;;;;;21.00;14.15;;;16.90;99.90;;;;;;5054762;28;20035;-76
2023/06/01 07:31:27;;;;;;;19.90;13.27;;;17.00;99.90;;;;;;5050643;28;20017;-76
2023/06/01 07:33:55;;;;;;;21.83;14.57;;;17.00;99.90;;;;;;5049589;28;20025;-76
2023/06/01 07:36:23;;;;;;;24.00;14.80;;;17.00;99.90;;;;;;5052441;28;20021;-77
2023/06/01 07:38:50;;;;;;;22.80;16.15;;;17.20;99.90;;;;;;5050780;28;21474;-77
2023/06/01 07:41:16;;;;;;;22.90;14.93;;;17.30;99.90;;;;;;5053863;28;20025;-77
2023/06/01 07:43:41;;;;;;;24.17;14.35;;;17.20;99.90;;;;;;5051646;28;20035;-76
2023/06/01 07:46:07;;;;;;;23.13;13.70;;;17.30;99.90;;;;;;5052948;28;20021;-76
2023/06/01 07:48:36;;;;;;;20.38;16.23;;;17.40;99.90;;;;;;5052946;28;20017;-76
2023/06/01 07:51:02;;;;;;;19.73;14.57;;;17.60;99.90;;;;;;5050712;28;20017;-76
2023/06/01 07:53:28;;;;;;;22.70;17.27;;;17.50;99.90;;;;;;5048855;28;20436;-76
2023/06/01 07:55:55;;;;;;;26.50;16.92;;;17.30;99.90;;;;;;5051119;28;20029;-77
2023/06/01 07:58:20;;;;;;;21.63;13.88;;;17.30;99.90;;;;;;5050229;28;20107;-76
2023/06/01 08:00:46;;;;;;;20.58;15.15;;;17.40;99.90;;;;;;5049598;28;20047;-76
2023/06/01 08:03:12;;;;;;;23.13;14.63;;;17.40;99.90;;;;;;5052041;28;20036;-76
2023/06/01 08:05:41;;;;;;;18.83;14.27;;;17.60;99.90;;;;;;5053067;28;20065;-76
2023/06/01 08:08:07;;;;;;;21.75;15.75;;;17.80;99.90;;;;;;5035897;28;20389;-77
2023/06/01 08:10:33;;;;;;;22.90;12.77;;;17.90;99.90;;;;;;5052358;28;20028;-77
2023/06/01 08:12:59;;;;;;;21.70;14.15;;;18.10;99.90;;;;;;5050655;28;20118;-77
2023/06/01 08:15:26;;;;;;;22.73;14.43;;;18.10;99.90;;;;;;5050906;28;20141;-76
2023/06/01 08:17:52;;;;;;;20.67;14.52;;;18.30;99.90;;;;;;5054556;28;20037;-76
2023/06/01 08:20:25;;;;;;;23.65;15.25;;;18.30;99.90;;;;;;5051672;28;20017;-77
2023/06/01 08:22:51;;;;;;;21.23;14.07;;;18.30;99.90;;;;;;5051805;28;20086;-76
2023/06/01 08:25:17;;;;;;;18.90;13.38;;;18.40;99.90;;;;;;5050311;28;20116;-76
2023/06/01 08:27:43;;;;;;;21.75;14.05;;;18.50;99.90;;;;;;5052547;28;20067;-77
2023/06/01 08:30:11;;;;;;;24.48;14.95;;;18.70;99.90;;;;;;5055539;28;20080;-77
2023/06/01 08:32:37;;;;;;;18.42;14.35;;;18.60;99.90;;;;;;5052692;28;20501;-77
2023/06/01 08:35:03;;;;;;;25.00;14.07;;;18.70;99.90;;;;;;5035965;28;20393;-77
2023/06/01 08:37:29;;;;;;;23.83;14.98;;;18.80;99.90;;;;;;5051931;28;20029;-77
2023/06/01 08:39:55;;;;;;;22.08;13.57;;;18.90;99.90;;;;;;5050311;28;20017;-77
2023/06/01 08:42:41;;;;;;;19.17;13.52;;;19.10;99.90;;;;;;5033608;28;20017;-82
2023/06/01 08:45:07;;;;;;;22.73;13.38;;;19.00;99.90;;;;;;5051233;28;20046;-79
2023/06/01 08:47:35;;;;;;;20.45;13.77;;;19.40;99.90;;;;;;5053600;28;20024;-78
2023/06/01 08:50:01;;;;;;;21.20;13.93;;;19.40;99.90;;;;;;5053455;28;20140;-78
2023/06/01 08:52:31;;;;;;;23.77;14.50;;;19.40;99.90;;;;;;5052346;28;20112;-77
2023/06/01 08:55:01;;;;;;;22.15;13.77;;;19.50;99.90;;;;;;5051661;28;20028;-79
2023/06/01 08:57:31;;;;;;;20.42;12.60;;;19.60;99.90;;;;;;5051584;28;20059;-77
2023/06/01 08:59:58;;;;;;;19.92;13.25;;;19.90;99.90;;;;;;5050641;28;20470;-75
2023/06/01 09:02:25;;;;;;;18.33;13.07;;;20.00;99.90;;;;;;5049822;28;20041;-79
2023/06/01 09:04:52;;;;;;;18.63;12.85;;;20.20;99.90;;;;;;5051788;28;20025;-79
2023/06/01 09:07:18;;;;;;;17.70;13.35;;;20.40;99.90;;;;;;5053871;28;20028;-81
2023/06/01 09:09:44;;;;;;;20.20;14.32;;;20.40;99.90;;;;;;5050983;28;20072;-83
2023/06/01 09:12:20;;;;;;;23.23;13.48;;;20.50;99.90;;;;;;5052548;28;20060;-78
2023/06/01 09:14:46;;;;;;;20.40;11.95;;;20.70;99.90;;;;;;5051525;28;22809;-80
2023/06/01 09:17:21;;;;;;;22.63;11.93;;;20.70;99.90;;;;;;5051480;28;20551;-82
2023/06/01 09:19:47;;;;;;;20.17;13.07;;;20.70;99.90;;;;;;5031272;28;20381;-81
2023/06/01 09:22:13;;;;;;;21.85;12.25;;;20.50;99.90;;;;;;5035047;28;20022;-79
2023/06/01 09:24:42;;;;;;;21.17;12.93;;;20.60;99.90;;;;;;5034372;28;20024;-80
2023/06/01 09:27:09;;;;;;;17.85;13.35;;;20.70;99.90;;;;;;5052091;28;20164;-81
2023/06/01 09:29:34;;;;;;;20.63;13.60;;;21.00;99.90;;;;;;5049223;28;20025;-82
2023/06/01 09:32:01;;;;;;;21.08;14.18;;;21.20;99.90;;;;;;5040943;28;20071;-81
2023/06/01 09:34:27;;;;;;;18.67;13.07;;;21.40;99.90;;;;;;5056228;28;20036;-82
2023/06/01 09:36:55;;;;;;;20.30;13.32;;;21.50;99.90;;;;;;5053958;28;20036;-80
2023/06/01 09:39:24;;;;;;;20.08;12.52;;;21.50;99.90;;;;;;5053846;28;20033;-80
2023/06/01 09:41:51;;;;;;;21.98;13.25;;;21.70;99.90;;;;;;5051395;28;20024;-79
2023/06/01 09:44:31;;;;;;;17.63;12.20;;;21.90;99.90;;;;;;5050677;28;20048;-79
2023/06/01 09:47:02;;;;;;;21.25;13.38;;;21.90;99.90;;;;;;5040503;28;21121;-78
2023/06/01 09:49:33;;;;;;;20.02;13.25;;;22.20;99.90;;;;;;5055546;28;20029;-80
2023/06/01 09:52:05;;;;;;;19.80;11.63;;;22.30;99.90;;;;;;5054000;28;20094;-79
2023/06/01 09:54:34;;;;;;;23.30;12.57;;;22.50;99.90;;;;;;5053434;28;20151;-78
2023/06/01 09:57:02;;;;;;;19.42;12.80;;;22.50;99.90;;;;;;5053067;28;23037;-79
2023/06/01 09:59:29;;;;;;;20.48;14.95;;;22.60;99.90;;;;;;5052726;28;20029;-80
2023/06/01 10:01:57;;;;;;;21.45;13.65;;;22.70;99.90;;;;;;5048164;28;20017;-80
2023/06/01 10:04:27;;;;;;;21.00;13.13;;;22.60;99.90;;;;;;5050979;28;20082;-76
2023/06/01 10:06:56;;;;;;;26.63;14.20;;;22.80;99.90;;;;;;5054409;28;20093;-84
2023/06/01 10:09:24;;;;;;;19.35;13.18;;;22.90;99.90;;;;;;5054091;28;20036;-83
2023/06/01 10:11:53;;;;;;;19.35;13.65;;;23.10;99.90;;;;;;5054552;28;20016;-80
2023/06/01 10:14:20;;;;;;;24.25;13.85;;;23.20;99.90;;;;;;5053184;28;20040;-80
2023/06/01 10:16:52;;;;;;;17.05;12.30;;;23.10;99.90;;;;;;5057358;28;20031;-80
2023/06/01 10:19:19;;;;;;;20.45;13.57;;;23.00;99.90;;;;;;5056583;28;20055;-80
2023/06/01 10:21:46;;;;;;;22.52;14.60;;;23.30;99.90;;;;;;5054932;28;20036;-81
2023/06/01 10:24:13;;;;;;;18.52;13.57;;;23.20;99.90;;;;;;5054060;28;20032;-78
2023/06/01 10:26:45;;;;;;;18.50;13.20;;;23.40;99.90;;;;;;5054304;28;20017;-81
2023/06/01 10:29:12;;;;;;;21.00;12.68;;;23.40;99.90;;;;;;5052214;28;20091;-82
2023/06/01 10:31:42;;;;;;;18.75;11.95;;;23.40;99.90;;;;;;5052824;28;20530;-81
2023/06/01 10:34:12;;;;;;;17.48;12.70;;;23.60;99.90;;;;;;5056334;28;20033;-82
2023/06/01 10:36:53;;;;;;;20.58;10.63;;;23.70;99.90;;;;;;5054813;28;20033;-86
2023/06/01 10:39:24;;;;;;;18.67;11.52;;;23.70;99.90;;;;;;5051364;28;20029;-79
2023/06/01 10:41:50;;;;;;;17.60;11.75;;;23.80;99.90;;;;;;5054494;28;20791;-81
2023/06/01 10:44:37;;;;;;;17.67;11.63;;;23.80;99.90;;;;;;5056452;28;20053;-82
2023/06/01 10:47:03;;;;;;;19.77;12.98;;;23.80;99.90;;;;;;5053845;28;20096;-81
2023/06/01 10:49:48;;;;;;;21.45;12.70;;;23.60;99.90;;;;;;5055963;28;20096;-81
2023/06/01 10:52:34;;;;;;;18.05;11.13;;;23.80;99.90;;;;;;5058133;28;20084;-81
2023/06/01 10:55:06;;;;;;;16.90;11.38;;;24.10;99.90;;;;;;5053868;28;20117;-80
2023/06/01 10:57:36;;;;;;;19.52;11.73;;;24.10;99.90;;;;;;5053274;28;20064;-80
2023/06/01 11:00:14;;;;;;;18.73;11.27;;;24.40;99.90;;;;;;5057469;28;20091;-84
2023/06/01 11:02:49;;;;;;;14.20;11.75;;;24.50;99.90;;;;;;5054500;28;20043;-83
2023/06/01 11:05:43;;;;;;;19.35;11.90;;;24.60;99.90;;;;;;5055108;28;20493;-83
2023/06/01 11:08:21;;;;;;;14.77;11.70;;;24.50;99.90;;;;;;5057314;28;20068;-82
2023/06/01 11:11:00;;;;;;;20.67;13.35;;;24.60;99.90;;;;;;5055346;28;20456;-78
2023/06/01 11:13:31;;;;;;;18.80;12.57;;;24.60;99.40;;;;;;5053408;28;20021;-80
2023/06/01 11:16:22;;;;;;;17.58;12.60;;;24.80;99.80;;;;;;5056757;28;20520;-79
2023/06/01 11:18:59;;;;;;;20.25;12.88;;;24.80;99.90;;;;;;5052901;28;20115;-80
2023/06/01 11:21:33;;;;;;;15.38;11.90;;;24.90;99.90;;;;;;5052352;28;20033;-78
2023/06/01 11:24:01;;;;;;;15.35;11.52;;;25.10;98.70;;;;;;5054804;28;20040;-79
2023/06/01 11:26:41;;;;;;;18.55;12.13;;;25.00;99.40;;;;;;5035975;28;20067;-77
2023/06/01 11:29:24;;;;;;;16.30;11.57;;;25.20;98.70;;;;;;5055846;28;20025;-79
2023/06/01 11:31:58;;;;;;;19.90;12.15;;;25.20;99.20;;;;;;5052792;28;20035;-80
2023/06/01 11:34:44;;;;;;;17.20;11.48;;;25.00;97.80;;;;;;5050995;28;20037;-79
2023/06/01 11:37:19;;;;;;;17.48;12.05;;;25.30;98.50;;;;;;5054123;28;20040;-79
2023/06/01 11:39:47;;;;;;;16.98;11.55;;;25.40;96.60;;;;;;5054349;28;20057;-80
2023/06/01 11:42:16;;;;;;;16.92;10.75;;;25.40;98.00;;;;;;5052318;28;20025;-79
2023/06/01 11:44:43;;;;;;;16.83;11.88;;;25.50;99.10;;;;;;5053094;28;20032;-80
2023/06/01 11:47:10;;;;;;;28.77;11.75;;;25.60;97.60;;;;;;5053167;28;20119;-79
2023/06/01 11:49:51;;;;;;;65.90;15.98;;;25.50;96.90;;;;;;5034817;28;20428;-78
2023/06/01 11:52:17;;;;;;;25.88;12.10;;;25.70;96.80;;;;;;5053735;28;20013;-78
2023/06/01 11:54:44;;;;;;;16.65;12.15;;;25.70;96.90;;;;;;5053178;28;21269;-79
2023/06/01 11:57:10;;;;;;;18.60;12.27;;;25.60;96.90;;;;;;5055637;28;20028;-81
2023/06/01 11:59:49;;;;;;;16.60;10.95;;;25.40;97.20;;;;;;5035421;28;20140;-81
2023/06/01 12:02:35;;;;;;;20.90;10.40;;;25.50;96.70;;;;;;5054290;28;20021;-81
2023/06/01 12:05:08;;;;;;;17.40;11.00;;;25.80;97.40;;;;;;5055158;28;20045;-81
2023/06/01 12:07:55;;;;;;;16.27;10.95;;;25.70;96.20;;;;;;5053510;28;20029;-83
2023/06/01 12:10:21;;;;;;;22.30;10.57;;;25.80;97.10;;;;;;5056237;28;20392;-79
2023/06/01 12:12:47;;;;;;;18.90;11.52;;;25.90;96.50;;;;;;5054617;28;20009;-78
2023/06/01 12:15:18;;;;;;;17.73;12.15;;;26.00;95.50;;;;;;5054164;28;20035;-79
2023/06/01 12:17:52;;;;;;;13.35;9.95;;;25.90;95.60;;;;;;5052000;28;20025;-79
2023/06/01 12:20:37;;;;;;;16.67;10.07;;;25.80;96.10;;;;;;5053261;28;20056;-79
2023/06/01 12:23:19;;;;;;;15.85;10.13;;;25.90;96.00;;;;;;5054913;28;20039;-80
2023/06/01 12:25:51;;;;;;;17.25;11.15;;;26.00;96.80;;;;;;5051067;28;20170;-79
2023/06/01 12:28:17;;;;;;;;;;;26.00;96.80;;;;;;5054217;28;20020;-81
2023/06/01 12:30:44;;;;;;;18.58;12.40;;;26.10;95.90;;;;;;5052295;28;19913;-79
2023/06/01 12:33:33;;;;;;;18.08;11.52;;;26.10;95.60;;;;;;5053187;28;20098;-80
2023/06/01 12:35:59;;;;;;;15.18;11.68;;;26.10;96.60;;;;;;5053288;28;20033;-80